Observations for ST. NAZAIRE MONTOIR, France (LFRZ)

LFRZ 252200Z AUTO 35003KT 9999 FEW038 15/13 Q1022 NOSIG 
LFRZ 252130Z AUTO 35005KT 9999 FEW019 BKN043 16/14 Q1022 NOSIG  
LFRZ 252100Z AUTO 35005KT 9999 FEW018 OVC041 16/14 Q1022 NOSIG  
LFRZ 252030Z AUTO 32003KT 280V040 9999 FEW018 OVC043 17/15 Q1022 NOSIG  
LFRZ 252000Z AUTO VRB02KT 9999 OVC041 17/15 Q1021 NOSIG 
LFRZ 251930Z AUTO VRB02KT 9999 FEW011 BKN045 17/15 Q1021 NOSIG  
LFRZ 251900Z AUTO VRB02KT 9999 SCT019 BKN026 OVC041 17/15 Q1021 NOSIG   
LFRZ 251830Z AUTO 30003KT 260V320 9999 SCT029 BKN040 17/15 Q1021 NOSIG  
LFRZ 251800Z AUTO VRB03KT 9999 BKN028 OVC052 17/15 Q1021 NOSIG  
LFRZ 251730Z AUTO VRB02KT 9999 FEW006 BKN029 BKN040 17/15 Q1021 NOSIG   
LFRZ 251700Z AUTO 29004KT 250V320 9999 BKN025 BKN043 OVC050 18/16 Q1020 NOSIG   
LFRZ 251630Z AUTO 27004KT 250V320 9999 BKN025 BKN030 BKN038 17/16 Q1020 NOSIG   
LFRZ 251600Z AUTO 28004KT 250V330 9999 FEW009/// OVC050/// ///TCU 17/16 Q1020 BECMG SCT008 BKN016   
LFRZ 251530Z AUTO 29005KT 9999 SCT010 SCT028 BKN041 17/16 Q1020 NOSIG   
LFRZ 251500Z AUTO 29005KT 9999 SCT009 BKN016 BKN025 17/16 Q1020 TEMPO 3000 -RA BKN009   
LFRZ 251430Z AUTO 30006KT 9999 FEW012 BKN022 OVC028 17/15 Q1020 TEMPO 3000 -RA BKN009   
LFRZ 251400Z AUTO 30005KT 7000 3400 -RADZ BKN012 BKN020 OVC029 18/15 Q1020 BECMG BKN016 
LFRZ 251330Z AUTO 36006KT 9999 SCT008 SCT013 OVC028 18/15 Q1019 NOSIG   
LFRZ 251300Z AUTO 34007KT 310V020 6000 SCT008 BKN012 OVC021 18/16 Q1019 BECMG BKN016
LFRZ 251230Z AUTO 34006KT 310V010 9999 BKN015 OVC021 18/15 Q1019 NOSIG  
LFRZ 251200Z AUTO 35007KT 9999 BKN012 OVC017 18/15 Q1019 BECMG BKN016   
LFRZ 251130Z AUTO 36009KT 9999 BKN012 OVC018 18/15 Q1019 BECMG BKN016   
LFRZ 251100Z AUTO 36011KT 9999 BKN011 OVC016 17/15 Q1019 BECMG BKN016   
LFRZ 251030Z AUTO 34010KT 9999 BKN010 OVC028 17/15 Q1019 BECMG BKN016   
LFRZ 251000Z AUTO 34010KT 9999 BKN007 OVC012 17/15 Q1019 BECMG BKN016   
LFRZ 250930Z AUTO 32007KT 280V350 9999 BKN006 OVC011 17/16 Q1018 BECMG BKN016   
LFRZ 250900Z AUTO 29004KT 9999 OVC005 17/16 Q1018 TEMPO 3000 RA BKN030TCU   
LFRZ 250830Z AUTO 27004KT 240V310 9999 OVC005 17/16 Q1018 BECMG BKN016  
LFRZ 250800Z AUTO 23004KT 8000 OVC005 16/16 Q1018 TEMPO 3000 RA BKN030TCU   
LFRZ 250730Z AUTO 22002KT 9999 BKN007 BKN011 OVC023 16/15 Q1018 TEMPO 3000 RA BKN030TCU 
LFRZ 250700Z AUTO 23004KT 9999 -RA BKN009 OVC025 16/15 Q1018 TEMPO 3000 RA BKN030TCU
LFRZ 250630Z AUTO VRB02KT 9999 BKN009 BKN024 BKN029 16/15 Q1017 TEMPO 3000 RA BKN030TCU 
LFRZ 250600Z AUTO 26002KT 9999 FEW010 SCT017 BKN027 16/15 Q1017 TEMPO 3000 RA BKN030TCU 
LFRZ 250530Z AUTO 25004KT 9999 BKN009 BKN017 BKN130 16/15 Q1017 TEMPO 3000 RA BKN030TCU 
LFRZ 250500Z AUTO 22003KT 9999 BKN007 OVC029 16/15 Q1017 TEMPO 3000 BR BKN004   
LFRZ 250430Z AUTO 23005KT 9999 BKN007/// BKN012/// OVC039/// ///TCU 16/15 Q1017 TEMPO 3000 BR BKN004
LFRZ 250400Z AUTO 23003KT 9000 -RA BKN006/// OVC037/// ///TCU 16/15 Q1017 TEMPO 3000 BR BKN004  
LFRZ 250330Z AUTO 22006KT 9999 OVC006 16/15 Q1017 TEMPO 3000 BR BKN004  
LFRZ 250300Z AUTO 22007KT 9999 -RA BKN006/// BKN010/// OVC015/// ///CB 16/15 Q1017 TEMPO 3000 BR BKN004 
LFRZ 250230Z AUTO 21006KT 9999 -RA FEW008/// BKN016/// BKN023/// ///TCU 16/15 Q1017 TEMPO 3000 BR BKN004
LFRZ 250200Z AUTO VRB03KT 5000 -RA BR BKN005/// BKN021/// OVC100/// ///TCU 16/15 Q1017 TEMPO RA BKN005 BKN030   
LFRZ 250130Z AUTO VRB02KT 8000 -RA FEW007/// BKN052/// BKN082/// ///CB 16/15 Q1017 TEMPO 4000 RA BKN005 BKN030  
LFRZ 250100Z AUTO 27003KT 9000 -RA FEW008/// SCT045/// BKN080/// ///TCU 16/16 Q1018 TEMPO 4000 RA BKN005 BKN030 
LFRZ 250030Z AUTO 27002KT 9999 FEW005/// BKN022/// BKN084/// ///CB 16/15 Q1018 TEMPO 4000 RA BKN005 BKN030  
LFRZ 250000Z AUTO VRB02KT 9999 -RA FEW009/// BKN019/// BKN047/// ///CB 16/15 Q1018 TEMPO 4000 RA BKN005 BKN030  
LFRZ 242330Z AUTO 24005KT 9999 SCT007/// OVC016/// ///CB 17/16 Q1018 TEMPO 4000 RA BKN005 BKN030
LFRZ 242300Z AUTO 23008KT 9999 OVC005/// ///TCU 17/16 Q1019 TEMPO 4000 RA BKN003
LFRZ 242230Z AUTO 23004KT 9999 SCT006 BKN046 BKN078 16/16 Q1018 TEMPO 4000 RA BKN003
LFRZ 242200Z AUTO 06002KT 9000 ///CB 16/16 Q1018 BECMG BKN005   
LFRZ 242130Z AUTO VRB02KT 9999 ///CB 16/16 Q1018 BECMG BKN005